sensor_id;sensor_type;location;lat;lon;timestamp;pressure;altitude;pressure_sealevel;temperature;humidity
58534;BME280;44109;52.398;7.024;2023-02-10T00:01:27;103227.94;;;1.51;100.00
58534;BME280;44109;52.398;7.024;2023-02-10T00:03:55;103230.94;;;1.50;100.00
58534;BME280;44109;52.398;7.024;2023-02-10T00:06:25;103241.00;;;1.49;100.00
58534;BME280;44109;52.398;7.024;2023-02-10T00:08:56;103236.06;;;1.46;100.00
58534;BME280;44109;52.398;7.024;2023-02-10T00:11:26;103240.09;;;1.44;100.00
58534;BME280;44109;52.398;7.024;2023-02-10T00:14:13;103243.31;;;1.41;100.00
58534;BME280;44109;52.398;7.024;2023-02-10T00:16:44;103229.56;;;1.36;100.00
58534;BME280;44109;52.398;7.024;2023-02-10T00:19:13;103228.81;;;1.40;100.00
58534;BME280;44109;52.398;7.024;2023-02-10T00:21:41;103226.78;;;1.47;100.00
58534;BME280;44109;52.398;7.024;2023-02-10T00:24:08;103217.13;;;1.45;100.00
58534;BME280;44109;52.398;7.024;2023-02-10T00:26:36;103232.72;;;1.44;100.00
58534;BME280;44109;52.398;7.024;2023-02-10T00:29:04;103222.44;;;1.35;100.00
58534;BME280;44109;52.398;7.024;2023-02-10T00:31:31;103227.34;;;1.33;100.00
58534;BME280;44109;52.398;7.024;2023-02-10T00:34:01;103226.75;;;1.31;100.00
58534;BME280;44109;52.398;7.024;2023-02-10T00:36:28;103232.00;;;1.32;100.00
58534;BME280;44109;52.398;7.024;2023-02-10T00:38:56;103239.44;;;1.20;100.00
58534;BME280;44109;52.398;7.024;2023-02-10T00:41:24;103238.94;;;1.23;100.00
58534;BME280;44109;52.398;7.024;2023-02-10T00:43:52;103232.63;;;1.22;100.00
58534;BME280;44109;52.398;7.024;2023-02-10T00:46:21;103243.00;;;1.20;100.00
58534;BME280;44109;52.398;7.024;2023-02-10T00:48:49;103235.97;;;1.24;100.00
58534;BME280;44109;52.398;7.024;2023-02-10T00:51:19;103248.53;;;1.25;100.00
58534;BME280;44109;52.398;7.024;2023-02-10T00:53:47;103241.34;;;1.19;100.00
58534;BME280;44109;52.398;7.024;2023-02-10T00:56:17;103245.66;;;1.32;100.00
58534;BME280;44109;52.398;7.024;2023-02-10T00:58:46;103244.31;;;1.35;100.00
58534;BME280;44109;52.398;7.024;2023-02-10T01:01:14;103236.81;;;1.42;100.00
58534;BME280;44109;52.398;7.024;2023-02-10T01:06:12;103230.81;;;1.45;100.00
58534;BME280;44109;52.398;7.024;2023-02-10T01:08:42;103217.13;;;1.45;100.00
58534;BME280;44109;52.398;7.024;2023-02-10T01:11:11;103254.28;;;1.58;100.00
58534;BME280;44109;52.398;7.024;2023-02-10T01:13:41;103224.38;;;1.51;100.00
58534;BME280;44109;52.398;7.024;2023-02-10T01:16:12;103258.66;;;1.59;100.00
58534;BME280;44109;52.398;7.024;2023-02-10T01:18:43;103243.91;;;1.43;100.00
58534;BME280;44109;52.398;7.024;2023-02-10T01:21:13;103245.84;;;1.42;100.00
58534;BME280;44109;52.398;7.024;2023-02-10T01:23:44;103265.06;;;1.47;100.00
58534;BME280;44109;52.398;7.024;2023-02-10T01:26:13;103265.72;;;1.38;100.00
58534;BME280;44109;52.398;7.024;2023-02-10T01:28:41;103265.84;;;1.31;100.00
58534;BME280;44109;52.398;7.024;2023-02-10T01:31:12;103266.28;;;1.40;100.00
58534;BME280;44109;52.398;7.024;2023-02-10T01:33:42;103263.63;;;1.28;100.00
58534;BME280;44109;52.398;7.024;2023-02-10T01:36:12;103261.56;;;1.35;100.00
58534;BME280;44109;52.398;7.024;2023-02-10T01:38:42;103260.81;;;1.23;100.00
58534;BME280;44109;52.398;7.024;2023-02-10T01:41:13;103277.78;;;1.25;100.00
58534;BME280;44109;52.398;7.024;2023-02-10T01:44:00;103263.78;;;1.21;100.00
58534;BME280;44109;52.398;7.024;2023-02-10T01:46:30;103269.91;;;1.12;100.00
58534;BME280;44109;52.398;7.024;2023-02-10T01:49:02;103276.78;;;1.14;100.00
58534;BME280;44109;52.398;7.024;2023-02-10T01:51:37;103259.88;;;1.00;100.00
58534;BME280;44109;52.398;7.024;2023-02-10T01:54:12;103269.16;;;1.16;100.00
58534;BME280;44109;52.398;7.024;2023-02-10T01:56:50;103272.59;;;1.23;100.00
58534;BME280;44109;52.398;7.024;2023-02-10T01:59:20;103282.03;;;1.33;100.00
58534;BME280;44109;52.398;7.024;2023-02-10T02:01:49;103273.75;;;1.27;100.00
58534;BME280;44109;52.398;7.024;2023-02-10T02:04:17;103272.34;;;1.42;100.00
58534;BME280;44109;52.398;7.024;2023-02-10T02:06:45;103269.34;;;1.26;100.00
58534;BME280;44109;52.398;7.024;2023-02-10T02:09:14;103275.97;;;1.31;100.00
58534;BME280;44109;52.398;7.024;2023-02-10T02:11:47;103261.66;;;1.23;100.00
58534;BME280;44109;52.398;7.024;2023-02-10T02:14:30;103277.72;;;1.20;100.00
58534;BME280;44109;52.398;7.024;2023-02-10T02:17:13;103275.63;;;1.27;100.00
58534;BME280;44109;52.398;7.024;2023-02-10T02:20:20;103278.78;;;1.19;100.00
58534;BME280;44109;52.398;7.024;2023-02-10T02:23:46;103282.91;;;1.21;100.00
58534;BME280;44109;52.398;7.024;2023-02-10T02:26:47;103273.09;;;1.09;100.00
58534;BME280;44109;52.398;7.024;2023-02-10T02:29:39;103278.00;;;1.07;100.00
58534;BME280;44109;52.398;7.024;2023-02-10T02:32:24;103255.69;;;0.98;100.00
58534;BME280;44109;52.398;7.024;2023-02-10T02:34:59;103270.88;;;1.06;100.00
58534;BME280;44109;52.398;7.024;2023-02-10T02:37:33;103273.53;;;1.00;100.00
58534;BME280;44109;52.398;7.024;2023-02-10T02:40:05;103269.84;;;0.95;100.00
58534;BME280;44109;52.398;7.024;2023-02-10T02:42:33;103277.53;;;1.10;100.00
58534;BME280;44109;52.398;7.024;2023-02-10T02:45:05;103275.63;;;1.10;100.00
58534;BME280;44109;52.398;7.024;2023-02-10T02:47:48;103274.94;;;1.03;100.00
58534;BME280;44109;52.398;7.024;2023-02-10T02:50:33;103261.47;;;0.85;100.00
58534;BME280;44109;52.398;7.024;2023-02-10T02:53:13;103255.91;;;0.80;100.00
58534;BME280;44109;52.398;7.024;2023-02-10T02:55:54;103283.28;;;0.96;100.00
58534;BME280;44109;52.398;7.024;2023-02-10T02:58:33;103287.50;;;1.04;100.00
58534;BME280;44109;52.398;7.024;2023-02-10T03:01:13;103279.31;;;1.04;100.00
58534;BME280;44109;52.398;7.024;2023-02-10T03:03:44;103282.09;;;0.92;100.00
58534;BME280;44109;52.398;7.024;2023-02-10T03:06:12;103282.38;;;1.08;100.00
58534;BME280;44109;52.398;7.024;2023-02-10T03:08:40;103278.16;;;1.00;100.00
58534;BME280;44109;52.398;7.024;2023-02-10T03:11:08;103283.84;;;0.98;100.00
58534;BME280;44109;52.398;7.024;2023-02-10T03:13:36;103272.94;;;0.98;100.00
58534;BME280;44109;52.398;7.024;2023-02-10T03:16:04;103269.03;;;0.94;100.00
58534;BME280;44109;52.398;7.024;2023-02-10T03:18:32;103267.25;;;1.00;100.00
58534;BME280;44109;52.398;7.024;2023-02-10T03:21:02;103270.78;;;1.00;100.00
58534;BME280;44109;52.398;7.024;2023-02-10T03:23:30;103275.44;;;1.00;100.00
58534;BME280;44109;52.398;7.024;2023-02-10T03:25:58;103269.47;;;1.03;100.00
58534;BME280;44109;52.398;7.024;2023-02-10T03:28:26;103266.59;;;1.10;100.00
58534;BME280;44109;52.398;7.024;2023-02-10T03:30:55;103264.59;;;1.05;100.00
58534;BME280;44109;52.398;7.024;2023-02-10T03:33:23;103253.78;;;0.98;100.00
58534;BME280;44109;52.398;7.024;2023-02-10T03:35:51;103280.47;;;0.91;100.00
58534;BME280;44109;52.398;7.024;2023-02-10T03:38:20;103282.25;;;1.14;100.00
58534;BME280;44109;52.398;7.024;2023-02-10T03:40:49;103267.56;;;1.04;100.00
58534;BME280;44109;52.398;7.024;2023-02-10T03:43:17;103258.91;;;0.95;100.00
58534;BME280;44109;52.398;7.024;2023-02-10T03:45:45;103281.63;;;0.95;100.00
58534;BME280;44109;52.398;7.024;2023-02-10T03:48:13;103288.38;;;1.05;100.00
58534;BME280;44109;52.398;7.024;2023-02-10T03:50:42;103273.38;;;1.07;100.00
58534;BME280;44109;52.398;7.024;2023-02-10T03:53:10;103273.03;;;1.04;100.00
58534;BME280;44109;52.398;7.024;2023-02-10T03:55:39;103271.41;;;0.91;100.00
58534;BME280;44109;52.398;7.024;2023-02-10T03:58:06;103265.16;;;1.07;100.00
58534;BME280;44109;52.398;7.024;2023-02-10T04:00:34;103268.16;;;1.06;100.00
58534;BME280;44109;52.398;7.024;2023-02-10T04:03:02;103269.06;;;1.11;100.00
58534;BME280;44109;52.398;7.024;2023-02-10T04:05:29;103277.56;;;0.98;100.00
58534;BME280;44109;52.398;7.024;2023-02-10T04:07:57;103279.72;;;0.96;100.00
58534;BME280;44109;52.398;7.024;2023-02-10T04:10:25;103277.81;;;0.96;100.00
58534;BME280;44109;52.398;7.024;2023-02-10T04:12:54;103273.00;;;0.87;100.00
58534;BME280;44109;52.398;7.024;2023-02-10T04:15:21;103276.69;;;0.81;100.00
58534;BME280;44109;52.398;7.024;2023-02-10T04:17:49;103262.09;;;0.75;100.00
58534;BME280;44109;52.398;7.024;2023-02-10T04:20:17;103280.50;;;0.68;100.00
58534;BME280;44109;52.398;7.024;2023-02-10T04:22:45;103279.59;;;0.62;100.00
58534;BME280;44109;52.398;7.024;2023-02-10T04:25:12;103281.50;;;0.62;100.00
58534;BME280;44109;52.398;7.024;2023-02-10T04:27:40;103279.47;;;0.69;100.00
58534;BME280;44109;52.398;7.024;2023-02-10T04:30:10;103292.06;;;0.58;100.00
58534;BME280;44109;52.398;7.024;2023-02-10T04:32:38;103280.38;;;0.74;100.00
58534;BME280;44109;52.398;7.024;2023-02-10T04:35:06;103282.19;;;0.69;100.00
58534;BME280;44109;52.398;7.024;2023-02-10T04:37:34;103274.72;;;0.64;100.00
58534;BME280;44109;52.398;7.024;2023-02-10T04:40:02;103291.22;;;0.58;100.00
58534;BME280;44109;52.398;7.024;2023-02-10T04:42:30;103302.97;;;0.58;100.00
58534;BME280;44109;52.398;7.024;2023-02-10T04:44:59;103309.16;;;0.65;100.00
58534;BME280;44109;52.398;7.024;2023-02-10T04:47:28;103307.81;;;0.80;100.00
58534;BME280;44109;52.398;7.024;2023-02-10T04:49:56;103301.94;;;0.59;100.00
58534;BME280;44109;52.398;7.024;2023-02-10T04:52:24;103312.97;;;0.64;100.00
58534;BME280;44109;52.398;7.024;2023-02-10T04:54:51;103316.38;;;0.71;100.00
58534;BME280;44109;52.398;7.024;2023-02-10T04:57:19;103322.00;;;0.65;100.00
58534;BME280;44109;52.398;7.024;2023-02-10T04:59:47;103319.88;;;0.43;100.00
58534;BME280;44109;52.398;7.024;2023-02-10T05:02:14;103324.13;;;0.63;100.00
58534;BME280;44109;52.398;7.024;2023-02-10T05:04:43;103309.06;;;0.60;100.00
58534;BME280;44109;52.398;7.024;2023-02-10T05:07:11;103310.75;;;0.38;100.00
58534;BME280;44109;52.398;7.024;2023-02-10T05:09:39;103321.78;;;0.43;100.00
58534;BME280;44109;52.398;7.024;2023-02-10T05:12:06;103311.69;;;0.55;100.00
58534;BME280;44109;52.398;7.024;2023-02-10T05:14:34;103316.31;;;0.43;100.00
58534;BME280;44109;52.398;7.024;2023-02-10T05:17:02;103315.59;;;0.47;100.00
58534;BME280;44109;52.398;7.024;2023-02-10T05:19:29;103315.25;;;0.44;100.00
58534;BME280;44109;52.398;7.024;2023-02-10T05:21:58;103299.94;;;0.43;100.00
58534;BME280;44109;52.398;7.024;2023-02-10T05:24:26;103302.06;;;0.41;100.00
58534;BME280;44109;52.398;7.024;2023-02-10T05:26:53;103308.59;;;0.40;100.00
58534;BME280;44109;52.398;7.024;2023-02-10T05:29:21;103308.38;;;0.30;100.00
58534;BME280;44109;52.398;7.024;2023-02-10T05:31:49;103313.47;;;0.38;100.00
58534;BME280;44109;52.398;7.024;2023-02-10T05:34:16;103314.31;;;0.38;100.00
58534;BME280;44109;52.398;7.024;2023-02-10T05:36:44;103308.50;;;0.35;100.00
58534;BME280;44109;52.398;7.024;2023-02-10T05:39:13;103323.31;;;0.39;100.00
58534;BME280;44109;52.398;7.024;2023-02-10T05:41:49;103320.25;;;0.35;100.00
58534;BME280;44109;52.398;7.024;2023-02-10T05:44:17;103305.66;;;0.30;100.00
58534;BME280;44109;52.398;7.024;2023-02-10T05:46:45;103309.47;;;0.29;100.00
58534;BME280;44109;52.398;7.024;2023-02-10T05:49:13;103314.09;;;0.28;100.00
58534;BME280;44109;52.398;7.024;2023-02-10T05:51:41;103303.16;;;0.16;100.00
58534;BME280;44109;52.398;7.024;2023-02-10T05:54:09;103311.72;;;0.20;100.00
58534;BME280;44109;52.398;7.024;2023-02-10T05:56:39;103314.78;;;0.12;100.00
58534;BME280;44109;52.398;7.024;2023-02-10T05:59:07;103318.59;;;-0.01;100.00
58534;BME280;44109;52.398;7.024;2023-02-10T06:01:38;103314.94;;;0.05;100.00
58534;BME280;44109;52.398;7.024;2023-02-10T06:04:06;103304.47;;;0.02;100.00
58534;BME280;44109;52.398;7.024;2023-02-10T06:06:34;103310.91;;;-0.04;100.00
58534;BME280;44109;52.398;7.024;2023-02-10T06:09:01;103307.31;;;0.07;100.00
58534;BME280;44109;52.398;7.024;2023-02-10T06:11:29;103313.50;;;0.03;100.00
58534;BME280;44109;52.398;7.024;2023-02-10T06:13:58;103309.22;;;-0.05;100.00
58534;BME280;44109;52.398;7.024;2023-02-10T06:16:26;103329.63;;;-0.08;100.00
58534;BME280;44109;52.398;7.024;2023-02-10T06:18:54;103323.81;;;0.01;100.00
58534;BME280;44109;52.398;7.024;2023-02-10T06:21:22;103323.91;;;-0.06;100.00
58534;BME280;44109;52.398;7.024;2023-02-10T06:23:50;103323.91;;;-0.06;100.00
58534;BME280;44109;52.398;7.024;2023-02-10T06:26:17;103313.25;;;-0.08;100.00
58534;BME280;44109;52.398;7.024;2023-02-10T06:28:45;103330.34;;;-0.12;100.00
58534;BME280;44109;52.398;7.024;2023-02-10T06:31:14;103317.88;;;-0.08;100.00
58534;BME280;44109;52.398;7.024;2023-02-10T06:33:42;103324.25;;;-0.14;100.00
58534;BME280;44109;52.398;7.024;2023-02-10T06:36:10;103321.66;;;-0.21;100.00
58534;BME280;44109;52.398;7.024;2023-02-10T06:38:37;103330.09;;;0.01;100.00
58534;BME280;44109;52.398;7.024;2023-02-10T06:41:05;103333.19;;;0.16;100.00
58534;BME280;44109;52.398;7.024;2023-02-10T06:43:33;103330.69;;;0.27;100.00
58534;BME280;44109;52.398;7.024;2023-02-10T06:46:00;103338.66;;;0.28;100.00
58534;BME280;44109;52.398;7.024;2023-02-10T06:48:29;103329.88;;;0.38;100.00
58534;BME280;44109;52.398;7.024;2023-02-10T06:50:57;103354.19;;;0.39;100.00
58534;BME280;44109;52.398;7.024;2023-02-10T06:53:25;103349.44;;;0.46;100.00
58534;BME280;44109;52.398;7.024;2023-02-10T06:55:55;103354.75;;;0.53;100.00
58534;BME280;44109;52.398;7.024;2023-02-10T06:58:23;103360.59;;;0.57;100.00
58534;BME280;44109;52.398;7.024;2023-02-10T07:00:51;103350.97;;;0.54;100.00
58534;BME280;44109;52.398;7.024;2023-02-10T07:03:19;103365.59;;;0.48;100.00
58534;BME280;44109;52.398;7.024;2023-02-10T07:05:48;103366.19;;;0.38;100.00
58534;BME280;44109;52.398;7.024;2023-02-10T07:08:15;103369.88;;;0.32;100.00
58534;BME280;44109;52.398;7.024;2023-02-10T07:10:43;103365.72;;;0.30;100.00
58534;BME280;44109;52.398;7.024;2023-02-10T07:13:11;103369.03;;;0.32;100.00
58534;BME280;44109;52.398;7.024;2023-02-10T07:15:38;103374.97;;;0.29;100.00
58534;BME280;44109;52.398;7.024;2023-02-10T07:18:06;103367.94;;;0.44;100.00
58534;BME280;44109;52.398;7.024;2023-02-10T07:20:33;103370.47;;;0.46;100.00
58534;BME280;44109;52.398;7.024;2023-02-10T07:23:03;103381.25;;;0.53;100.00
58534;BME280;44109;52.398;7.024;2023-02-10T07:25:30;103368.19;;;0.55;100.00
58534;BME280;44109;52.398;7.024;2023-02-10T07:27:58;103366.03;;;0.68;100.00
58534;BME280;44109;52.398;7.024;2023-02-10T07:30:25;103351.22;;;0.64;100.00
58534;BME280;44109;52.398;7.024;2023-02-10T07:32:54;103354.75;;;0.65;100.00
58534;BME280;44109;52.398;7.024;2023-02-10T07:35:22;103358.84;;;0.91;100.00
58534;BME280;44109;52.398;7.024;2023-02-10T07:37:49;103358.47;;;0.99;100.00
58534;BME280;44109;52.398;7.024;2023-02-10T07:40:18;103367.28;;;1.01;100.00
58534;BME280;44109;52.398;7.024;2023-02-10T07:42:47;103364.28;;;1.02;100.00
58534;BME280;44109;52.398;7.024;2023-02-10T07:45:15;103364.38;;;1.08;100.00
58534;BME280;44109;52.398;7.024;2023-02-10T07:47:43;103372.94;;;1.11;100.00
58534;BME280;44109;52.398;7.024;2023-02-10T07:50:10;103363.72;;;1.29;100.00
58534;BME280;44109;52.398;7.024;2023-02-10T07:52:38;103368.66;;;1.15;100.00
58534;BME280;44109;52.398;7.024;2023-02-10T07:55:07;103381.66;;;1.37;100.00
58534;BME280;44109;52.398;7.024;2023-02-10T07:57:36;103374.66;;;1.29;100.00
58534;BME280;44109;52.398;7.024;2023-02-10T08:00:06;103382.97;;;1.34;100.00
58534;BME280;44109;52.398;7.024;2023-02-10T08:02:34;103385.31;;;1.14;100.00
58534;BME280;44109;52.398;7.024;2023-02-10T08:05:02;103393.75;;;1.41;100.00
58534;BME280;44109;52.398;7.024;2023-02-10T08:07:29;103388.28;;;1.41;100.00
58534;BME280;44109;52.398;7.024;2023-02-10T08:09:57;103398.81;;;1.49;100.00
58534;BME280;44109;52.398;7.024;2023-02-10T08:12:25;103386.50;;;1.63;100.00
58534;BME280;44109;52.398;7.024;2023-02-10T08:14:54;103393.59;;;1.47;100.00
58534;BME280;44109;52.398;7.024;2023-02-10T08:17:21;103404.69;;;1.69;100.00
58534;BME280;44109;52.398;7.024;2023-02-10T08:19:49;103399.78;;;1.71;100.00
58534;BME280;44109;52.398;7.024;2023-02-10T08:22:17;103403.31;;;1.84;100.00
58534;BME280;44109;52.398;7.024;2023-02-10T08:24:44;103403.25;;;1.95;100.00
58534;BME280;44109;52.398;7.024;2023-02-10T08:27:12;103381.44;;;2.00;100.00
58534;BME280;44109;52.398;7.024;2023-02-10T08:29:39;103373.53;;;2.04;100.00
58534;BME280;44109;52.398;7.024;2023-02-10T08:32:09;103408.97;;;2.27;100.00
58534;BME280;44109;52.398;7.024;2023-02-10T08:34:37;103404.72;;;2.20;100.00
58534;BME280;44109;52.398;7.024;2023-02-10T08:37:05;103403.16;;;2.41;100.00
58534;BME280;44109;52.398;7.024;2023-02-10T08:39:32;103402.97;;;2.31;100.00
58534;BME280;44109;52.398;7.024;2023-02-10T08:42:00;103394.94;;;2.41;100.00
58534;BME280;44109;52.398;7.024;2023-02-10T08:44:28;103410.25;;;2.59;100.00
58534;BME280;44109;52.398;7.024;2023-02-10T08:46:55;103402.59;;;2.77;100.00
58534;BME280;44109;52.398;7.024;2023-02-10T08:49:24;103391.47;;;2.67;100.00
58534;BME280;44109;52.398;7.024;2023-02-10T08:51:53;103393.78;;;2.75;100.00
58534;BME280;44109;52.398;7.024;2023-02-10T08:54:21;103400.25;;;2.86;100.00
58534;BME280;44109;52.398;7.024;2023-02-10T08:56:52;103404.66;;;3.09;100.00
58534;BME280;44109;52.398;7.024;2023-02-10T08:59:22;103377.22;;;3.09;100.00
58534;BME280;44109;52.398;7.024;2023-02-10T09:01:50;103385.06;;;3.49;100.00
58534;BME280;44109;52.398;7.024;2023-02-10T09:04:18;103380.84;;;3.37;100.00
58534;BME280;44109;52.398;7.024;2023-02-10T09:06:47;103365.91;;;3.27;100.00
58534;BME280;44109;52.398;7.024;2023-02-10T09:09:16;103381.91;;;3.63;100.00
58534;BME280;44109;52.398;7.024;2023-02-10T09:11:47;103377.44;;;3.84;100.00
58534;BME280;44109;52.398;7.024;2023-02-10T09:14:15;103380.84;;;3.64;100.00
58534;BME280;44109;52.398;7.024;2023-02-10T09:16:43;103386.22;;;4.18;100.00
58534;BME280;44109;52.398;7.024;2023-02-10T09:19:11;103377.47;;;4.21;100.00
58534;BME280;44109;52.398;7.024;2023-02-10T09:21:38;103386.72;;;4.47;100.00
58534;BME280;44109;52.398;7.024;2023-02-10T09:24:07;103375.38;;;4.33;100.00
58534;BME280;44109;52.398;7.024;2023-02-10T09:26:35;103389.69;;;4.40;100.00
58534;BME280;44109;52.398;7.024;2023-02-10T09:29:03;103392.38;;;4.72;100.00
58534;BME280;44109;52.398;7.024;2023-02-10T09:31:31;103399.06;;;4.87;100.00
58534;BME280;44109;52.398;7.024;2023-02-10T09:33:59;103385.88;;;4.94;100.00
58534;BME280;44109;52.398;7.024;2023-02-10T09:36:27;103397.22;;;5.07;100.00
58534;BME280;44109;52.398;7.024;2023-02-10T09:38:55;103387.09;;;5.18;100.00
58534;BME280;44109;52.398;7.024;2023-02-10T09:41:35;103397.94;;;5.60;100.00
58534;BME280;44109;52.398;7.024;2023-02-10T09:44:15;103391.63;;;5.65;100.00
58534;BME280;44109;52.398;7.024;2023-02-10T09:46:58;103388.34;;;5.78;100.00
58534;BME280;44109;52.398;7.024;2023-02-10T09:49:54;103386.13;;;5.85;100.00
58534;BME280;44109;52.398;7.024;2023-02-10T09:52:49;103394.31;;;5.40;100.00
58534;BME280;44109;52.398;7.024;2023-02-10T09:55:31;103400.66;;;5.45;100.00
58534;BME280;44109;52.398;7.024;2023-02-10T09:58:03;103393.75;;;5.38;100.00
58534;BME280;44109;52.398;7.024;2023-02-10T10:00:40;103398.25;;;5.79;100.00
58534;BME280;44109;52.398;7.024;2023-02-10T10:03:13;103398.84;;;6.17;100.00
58534;BME280;44109;52.398;7.024;2023-02-10T10:05:55;103398.25;;;5.79;100.00
58534;BME280;44109;52.398;7.024;2023-02-10T10:08:34;103401.59;;;6.12;100.00
58534;BME280;44109;52.398;7.024;2023-02-10T10:11:22;103412.59;;;6.43;100.00
58534;BME280;44109;52.398;7.024;2023-02-10T10:13:54;103412.63;;;6.02;100.00
58534;BME280;44109;52.398;7.024;2023-02-10T10:16:42;103406.84;;;6.19;100.00
58534;BME280;44109;52.398;7.024;2023-02-10T10:19:28;103408.75;;;5.93;100.00
58534;BME280;44109;52.398;7.024;2023-02-10T10:22:21;103414.22;;;5.82;100.00
58534;BME280;44109;52.398;7.024;2023-02-10T10:25:11;103419.78;;;5.93;100.00
58534;BME280;44109;52.398;7.024;2023-02-10T10:28:02;103415.38;;;6.02;100.00
58534;BME280;44109;52.398;7.024;2023-02-10T10:30:45;103414.22;;;5.82;100.00
58534;BME280;44109;52.398;7.024;2023-02-10T10:33:20;103413.94;;;5.79;100.00
58534;BME280;44109;52.398;7.024;2023-02-10T10:35:50;103423.94;;;6.00;100.00
58534;BME280;44109;52.398;7.024;2023-02-10T10:38:20;103423.59;;;5.81;100.00
58534;BME280;44109;52.398;7.024;2023-02-10T10:40:52;103410.38;;;5.78;100.00
58534;BME280;44109;52.398;7.024;2023-02-10T10:43:24;103410.38;;;5.78;100.00
58534;BME280;44109;52.398;7.024;2023-02-10T10:46:01;103409.25;;;5.79;100.00
58534;BME280;44109;52.398;7.024;2023-02-10T10:48:35;103404.09;;;6.19;100.00
58534;BME280;44109;52.398;7.024;2023-02-10T10:51:08;103401.59;;;5.92;100.00
58534;BME280;44109;52.398;7.024;2023-02-10T10:53:39;103413.72;;;6.06;100.00
58534;BME280;44109;52.398;7.024;2023-02-10T10:56:15;103408.75;;;6.03;100.00
58534;BME280;44109;52.398;7.024;2023-02-10T10:58:47;103393.34;;;6.07;100.00
58534;BME280;44109;52.398;7.024;2023-02-10T11:01:31;103380.38;;;6.13;100.00
58534;BME280;44109;52.398;7.024;2023-02-10T11:04:10;103390.00;;;6.25;100.00
58534;BME280;44109;52.398;7.024;2023-02-10T11:06:42;103385.63;;;6.14;100.00
58534;BME280;44109;52.398;7.024;2023-02-10T11:09:24;103394.44;;;6.16;100.00
58534;BME280;44109;52.398;7.024;2023-02-10T11:12:01;103378.19;;;6.15;100.00
58534;BME280;44109;52.398;7.024;2023-02-10T11:14:37;103386.69;;;6.33;100.00
58534;BME280;44109;52.398;7.024;2023-02-10T11:17:19;103387.25;;;5.95;100.00
58534;BME280;44109;52.398;7.024;2023-02-10T11:19:55;103380.91;;;5.89;100.00
58534;BME280;44109;52.398;7.024;2023-02-10T11:22:24;103376.78;;;6.12;100.00
58534;BME280;44109;52.398;7.024;2023-02-10T11:24:55;103367.72;;;6.01;100.00
58534;BME280;44109;52.398;7.024;2023-02-10T11:27:24;103361.91;;;5.98;100.00
58534;BME280;44109;52.398;7.024;2023-02-10T11:29:53;103356.13;;;5.94;100.00
58534;BME280;44109;52.398;7.024;2023-02-10T11:32:25;103348.44;;;5.96;100.00
58534;BME280;44109;52.398;7.024;2023-02-10T11:34:57;103363.53;;;5.73;100.00
58534;BME280;44109;52.398;7.024;2023-02-10T11:37:30;103364.97;;;5.96;100.00
58534;BME280;44109;52.398;7.024;2023-02-10T11:40:01;103351.72;;;6.08;100.00
58534;BME280;44109;52.398;7.024;2023-02-10T11:42:33;103349.50;;;6.26;100.00
58534;BME280;44109;52.398;7.024;2023-02-10T11:45:16;103344.28;;;5.94;100.00
58534;BME280;44109;52.398;7.024;2023-02-10T11:47:46;103351.47;;;6.05;100.00
58534;BME280;44109;52.398;7.024;2023-02-10T11:50:20;103353.09;;;6.06;100.00
58534;BME280;44109;52.398;7.024;2023-02-10T11:52:49;103353.66;;;6.08;100.00
58534;BME280;44109;52.398;7.024;2023-02-10T11:55:18;103351.47;;;6.05;100.00
58534;BME280;44109;52.398;7.024;2023-02-10T11:57:56;103340.69;;;6.29;100.00
58534;BME280;44109;52.398;7.024;2023-02-10T12:00:53;103348.66;;;6.35;100.00
58534;BME280;44109;52.398;7.024;2023-02-10T12:03:37;103343.41;;;6.34;100.00
58534;BME280;44109;52.398;7.024;2023-02-10T12:06:19;103341.78;;;6.33;100.00
58534;BME280;44109;52.398;7.024;2023-02-10T12:09:02;103339.78;;;6.49;100.00
58534;BME280;44109;52.398;7.024;2023-02-10T12:11:48;103338.44;;;6.51;100.00
58534;BME280;44109;52.398;7.024;2023-02-10T12:14:31;103331.53;;;6.49;100.00
58534;BME280;44109;52.398;7.024;2023-02-10T12:17:23;103332.13;;;6.41;100.00
58534;BME280;44109;52.398;7.024;2023-02-10T12:20:05;103329.91;;;6.43;100.00
58534;BME280;44109;52.398;7.024;2023-02-10T12:23:01;103333.09;;;6.75;100.00
58534;BME280;44109;52.398;7.024;2023-02-10T12:25:44;103327.56;;;6.80;100.00
58534;BME280;44109;52.398;7.024;2023-02-10T12:28:25;103326.25;;;6.57;100.00
58534;BME280;44109;52.398;7.024;2023-02-10T12:31:13;103334.28;;;6.59;100.00
58534;BME280;44109;52.398;7.024;2023-02-10T12:34:04;103332.88;;;6.61;100.00
58534;BME280;44109;52.398;7.024;2023-02-10T12:36:57;103333.19;;;6.50;100.00
58534;BME280;44109;52.398;7.024;2023-02-10T12:39:41;103330.16;;;6.51;100.00
58534;BME280;44109;52.398;7.024;2023-02-10T12:42:30;103331.03;;;6.37;100.00
58534;BME280;44109;52.398;7.024;2023-02-10T12:45:17;103328.84;;;6.08;100.00
58534;BME280;44109;52.398;7.024;2023-02-10T12:47:58;103312.31;;;6.18;100.00
58534;BME280;44109;52.398;7.024;2023-02-10T12:50:46;103311.22;;;6.19;100.00
58534;BME280;44109;52.398;7.024;2023-02-10T12:53:34;103292.38;;;6.47;100.00
58534;BME280;44109;52.398;7.024;2023-02-10T12:56:08;103306.13;;;6.62;100.00
58534;BME280;44109;52.398;7.024;2023-02-10T12:58:44;103300.13;;;6.34;100.00
58534;BME280;44109;52.398;7.024;2023-02-10T13:01:21;103300.44;;;6.33;100.00
58534;BME280;44109;52.398;7.024;2023-02-10T13:03:58;103296.25;;;6.46;100.00
58534;BME280;44109;52.398;7.024;2023-02-10T13:06:36;103312.31;;;6.18;100.00
58534;BME280;44109;52.398;7.024;2023-02-10T13:09:14;103319.75;;;6.23;100.00
58534;BME280;44109;52.398;7.024;2023-02-10T13:12:03;103314.44;;;6.47;100.00
58534;BME280;44109;52.398;7.024;2023-02-10T13:14:41;103311.72;;;6.42;100.00
58534;BME280;44109;52.398;7.024;2023-02-10T13:17:11;103309.69;;;6.68;100.00
58534;BME280;44109;52.398;7.024;2023-02-10T13:19:46;103298.41;;;6.54;100.00